Time;durP1;ratioP1;P1;durP2;ratioP2;P2;SDS_P1;SDS_P2;PMS_P1;PMS_P2;Temp;Humidity;BMP_temperature;BMP_pressure;BME280_temperature;BME280_humidity;BME280_pressure;Samples;Min_cycle;Max_cycle;Signal;HPM_P1;HPM_P2
2021/05/04 18:30:09;;;;;;;9.95;6.10;;;8.60;72.10;;;;;;5070163;28;20418;-81
2021/05/04 18:32:35;;;;;;;22.30;13.15;;;8.30;70.00;;;;;;5070469;28;20100;-81
2021/05/04 18:35:05;;;;;;;23.88;14.32;;;8.30;72.30;;;;;;5070743;28;20099;-84
2021/05/04 18:37:53;;;;;;;17.67;9.35;;;8.20;73.60;;;;;;5068889;28;20474;-71
2021/05/04 18:40:52;;;;;;;17.58;9.32;;;8.20;75.20;;;;;;5069701;28;20025;-76
2021/05/04 19:09:38;;;;;;;15.77;8.70;;;8.00;78.30;;;;;;5069143;28;20024;-76
2021/05/04 19:28:42;;;;;;;14.02;7.28;;;7.80;80.10;;;;;;5069002;28;20175;-77
2021/05/04 20:14:05;;;;;;;18.10;9.80;;;7.10;82.40;;;;;;5055312;28;20056;-77
2021/05/04 20:16:35;;;;;;;13.50;8.85;;;7.10;82.50;;;;;;5054759;28;20024;-79
2021/05/04 20:19:01;;;;;;;16.17;9.40;;;7.00;82.80;;;;;;5054608;28;20017;-79
2021/05/04 20:21:27;;;;;;;14.82;9.18;;;7.00;82.80;;;;;;5054425;28;20029;-80
2021/05/04 20:23:53;;;;;;;11.65;8.20;;;7.00;82.90;;;;;;5054840;28;20021;-79
2021/05/04 20:26:18;;;;;;;13.45;9.10;;;7.00;83.00;;;;;;5053633;28;20455;-78
2021/05/04 20:28:46;;;;;;;15.88;9.38;;;6.90;83.00;;;;;;5054394;28;20049;-82
2021/05/04 20:31:12;;;;;;;16.20;9.68;;;6.90;83.30;;;;;;5039487;28;20116;-81
2021/05/04 20:33:39;;;;;;;15.25;8.65;;;6.90;83.30;;;;;;5055025;28;20032;-81
2021/05/04 20:36:06;;;;;;;17.63;9.88;;;6.80;83.40;;;;;;5054828;28;20014;-81
2021/05/04 20:38:33;;;;;;;16.33;10.07;;;6.80;83.30;;;;;;5054854;28;20032;-81
2021/05/04 20:41:00;;;;;;;15.70;9.60;;;6.80;83.40;;;;;;5054428;28;20021;-82
2021/05/04 20:43:26;;;;;;;22.05;11.05;;;6.70;83.70;;;;;;5054813;28;20032;-81
2021/05/04 20:45:52;;;;;;;18.73;11.18;;;6.70;83.60;;;;;;5053854;28;20393;-81
2021/05/04 20:48:18;;;;;;;21.70;11.93;;;6.70;83.60;;;;;;5054972;28;20025;-81
2021/05/04 20:50:44;;;;;;;19.98;12.10;;;6.70;83.80;;;;;;5053769;28;20136;-81
2021/05/04 20:53:11;;;;;;;20.20;11.93;;;6.60;83.70;;;;;;5053982;28;20036;-81
2021/05/04 20:55:38;;;;;;;24.17;11.60;;;6.60;83.80;;;;;;5055143;28;20021;-80
2021/05/04 20:58:04;;;;;;;22.50;12.77;;;6.60;84.10;;;;;;5054934;28;20025;-81
2021/05/04 21:00:30;;;;;;;21.05;12.40;;;6.60;84.00;;;;;;5054779;28;20029;-81
2021/05/04 21:02:56;;;;;;;19.20;11.93;;;6.60;84.10;;;;;;5053423;28;20115;-81
2021/05/04 21:05:22;;;;;;;22.02;12.57;;;6.50;84.30;;;;;;5055062;28;20475;-80
2021/05/04 21:07:50;;;;;;;19.52;11.57;;;6.50;84.70;;;;;;5054510;28;20056;-81
2021/05/04 21:12:47;;;;;;;21.70;12.57;;;6.50;84.80;;;;;;5054665;28;20098;-80
2021/05/04 21:15:20;;;;;;;20.85;12.60;;;6.50;84.90;;;;;;5054437;28;20079;-81
2021/05/04 21:17:55;;;;;;;21.92;12.88;;;6.40;85.00;;;;;;5054623;28;20013;-80
2021/05/04 21:28:00;;;;;;;25.60;15.23;;;6.30;85.20;;;;;;5054299;28;20033;-80
2021/05/04 21:30:25;;;;;;;26.02;15.35;;;6.30;85.40;;;;;;5054246;28;20021;-80
2021/05/04 21:32:51;;;;;;;23.60;14.88;;;6.20;85.40;;;;;;5054126;28;20075;-80
2021/05/04 21:35:25;;;;;;;24.27;14.40;;;6.20;85.60;;;;;;5052798;28;20056;-80
2021/05/04 21:37:51;;;;;;;24.05;14.35;;;6.20;85.70;;;;;;5052818;28;20020;-80
2021/05/04 21:40:17;;;;;;;25.55;13.57;;;6.20;85.80;;;;;;5054193;28;20917;-80
2021/05/04 21:42:42;;;;;;;19.70;12.70;;;6.10;85.70;;;;;;5053917;28;20028;-80
2021/05/04 21:45:09;;;;;;;22.52;12.95;;;6.10;85.80;;;;;;5054142;28;20028;-80
2021/05/04 21:47:35;;;;;;;20.23;13.05;;;6.10;85.90;;;;;;5053866;28;20025;-80
2021/05/04 21:50:01;;;;;;;21.13;12.32;;;6.10;86.20;;;;;;5054190;28;20175;-80
2021/05/04 21:52:26;;;;;;;19.23;12.10;;;6.00;86.40;;;;;;5052615;28;20489;-80
2021/05/04 21:54:52;;;;;;;21.17;12.27;;;6.00;86.70;;;;;;5052645;28;20364;-80
2021/05/04 21:57:18;;;;;;;19.20;11.82;;;6.00;86.80;;;;;;5054454;28;20032;-80
2021/05/04 21:59:47;;;;;;;21.35;11.93;;;6.00;86.70;;;;;;5053803;28;20025;-80
2021/05/04 22:02:14;;;;;;;18.85;10.88;;;5.90;86.70;;;;;;5053628;28;20021;-80
2021/05/04 22:04:40;;;;;;;16.85;10.95;;;5.90;86.80;;;;;;5053746;28;20021;-80
2021/05/04 22:07:06;;;;;;;15.65;10.15;;;5.90;87.00;;;;;;5054000;28;20471;-80
2021/05/04 22:09:31;;;;;;;17.90;10.25;;;5.90;87.10;;;;;;5053560;28;20025;-81
2021/05/04 22:12:07;;;;;;;15.32;9.60;;;5.90;87.20;;;;;;5053917;28;20071;-80
2021/05/04 22:14:54;;;;;;;16.98;10.52;;;5.90;87.20;;;;;;5053713;28;20162;-81
2021/05/04 22:17:51;;;;;;;16.60;10.25;;;5.90;87.40;;;;;;5053693;28;20032;-80
2021/05/04 22:36:28;;;;;;;17.20;11.57;;;5.80;86.70;;;;;;5053615;28;20028;-80
2021/05/04 22:38:57;;;;;;;17.52;11.23;;;5.80;86.70;;;;;;5053624;28;20479;-80
2021/05/04 22:41:52;;;;;;;15.63;10.65;;;5.90;86.40;;;;;;5053331;28;20024;-80
2021/05/04 23:16:24;;;;;;;14.25;8.63;;;6.20;84.50;;;;;;5055618;28;20021;-79
2021/05/04 23:18:50;;;;;;;14.07;8.50;;;6.20;84.60;;;;;;5055554;28;20079;-79
2021/05/04 23:21:19;;;;;;;12.68;7.35;;;6.20;84.60;;;;;;5056730;28;20032;-78
2021/05/04 23:23:49;;;;;;;7.97;6.25;;;6.20;84.50;;;;;;5057036;28;20029;-79
2021/05/04 23:26:15;;;;;;;9.38;6.25;;;6.20;84.30;;;;;;5056948;28;20025;-80
2021/05/04 23:28:41;;;;;;;8.77;6.20;;;6.20;84.20;;;;;;5056139;28;20495;-79
2021/05/04 23:31:06;;;;;;;12.35;6.38;;;6.20;84.30;;;;;;5056914;28;20420;-80
2021/05/04 23:33:32;;;;;;;9.80;6.65;;;6.20;84.10;;;;;;5056494;28;20112;-79
2021/05/04 23:35:58;;;;;;;9.23;6.22;;;6.20;84.10;;;;;;5056501;28;20051;-79
2021/05/04 23:38:24;;;;;;;10.63;5.63;;;6.20;84.40;;;;;;5056478;28;20163;-79
2021/05/04 23:40:49;;;;;;;10.50;6.55;;;6.20;84.10;;;;;;5055096;28;20040;-79
2021/05/04 23:43:15;;;;;;;9.38;5.25;;;6.20;84.00;;;;;;5056481;28;20028;-79
2021/05/04 23:45:41;;;;;;;7.35;5.20;;;6.20;84.00;;;;;;5056637;28;20104;-79
2021/05/04 23:48:07;;;;;;;9.02;5.00;;;6.20;83.90;;;;;;5056214;28;20103;-79
2021/05/04 23:50:33;;;;;;;9.32;5.28;;;6.30;83.90;;;;;;5056543;28;20370;-80
2021/05/04 23:52:58;;;;;;;10.70;5.63;;;6.30;83.90;;;;;;5056280;28;20037;-80
2021/05/04 23:55:24;;;;;;;8.65;4.97;;;6.20;83.70;;;;;;5056406;28;20028;-79
2021/05/04 23:57:50;;;;;;;8.40;4.85;;;6.20;84.00;;;;;;5056459;28;20028;-79
